Time;durP1;ratioP1;P1;durP2;ratioP2;P2;SDS_P1;SDS_P2;PMS_P1;PMS_P2;Temp;Humidity;BMP_temperature;BMP_pressure;BME280_temperature;BME280_humidity;BME280_pressure;Samples;Min_cycle;Max_cycle;Signal;HPM_P1;HPM_P2
2023/11/18 00:01:24;;;;;;;1999.90;999.90;;;5.00;99.90;;;;;;4965881;28;20045;-70
2023/11/18 00:03:50;;;;;;;1999.90;999.90;;;5.00;99.90;;;;;;4968715;28;20030;-71
2023/11/18 00:06:16;;;;;;;1999.90;999.90;;;4.90;99.90;;;;;;5030545;28;20028;-70
2023/11/18 00:08:42;;;;;;;1999.90;999.90;;;4.90;99.90;;;;;;4979753;28;20418;-70
2023/11/18 00:11:09;;;;;;;1999.90;999.90;;;5.00;99.90;;;;;;4967373;28;20030;-70
2023/11/18 00:13:34;;;;;;;;;;;5.00;99.90;;;;;;4973637;28;20104;-70
2023/11/18 00:16:00;;;;;;;1999.90;999.90;;;5.00;99.90;;;;;;4973253;28;20205;-70
2023/11/18 00:18:25;;;;;;;1999.90;999.90;;;5.00;99.90;;;;;;4971768;28;20049;-70
2023/11/18 00:20:51;;;;;;;1999.90;999.90;;;5.10;99.90;;;;;;4972187;28;20118;-70
2023/11/18 00:23:18;;;;;;;1999.90;999.90;;;5.20;99.90;;;;;;4972413;28;20417;-70
2023/11/18 00:25:45;;;;;;;1999.90;999.90;;;5.30;99.90;;;;;;4963587;28;20024;-70
2023/11/18 00:28:14;;;;;;;1999.90;999.90;;;5.30;99.90;;;;;;4969613;28;20110;-70
2023/11/18 00:30:40;;;;;;;1999.90;999.90;;;5.40;99.90;;;;;;4972865;28;20106;-70
2023/11/18 00:33:05;;;;;;;1999.90;999.90;;;5.30;99.90;;;;;;4971183;28;20166;-70
2023/11/18 00:35:33;;;;;;;1999.90;999.90;;;5.40;99.90;;;;;;4971212;28;20281;-71
2023/11/18 00:38:00;;;;;;;1999.90;999.90;;;5.40;99.90;;;;;;4969917;28;20069;-70
2023/11/18 00:40:29;;;;;;;1999.90;999.90;;;5.40;99.90;;;;;;4971946;28;20081;-70
2023/11/18 00:42:55;;;;;;;1999.90;999.90;;;5.50;99.90;;;;;;4972629;28;20038;-70
2023/11/18 00:45:21;;;;;;;1999.90;999.90;;;5.50;99.90;;;;;;4966151;28;20019;-71
2023/11/18 00:47:47;;;;;;;1999.90;999.90;;;5.50;99.90;;;;;;4969022;28;20410;-71
2023/11/18 00:50:13;;;;;;;1999.90;999.90;;;5.60;99.90;;;;;;4958513;28;20446;-70
2023/11/18 00:52:41;;;;;;;1999.90;999.90;;;5.60;99.90;;;;;;4954712;28;20027;-71
2023/11/18 00:55:08;;;;;;;1999.90;999.90;;;5.60;99.90;;;;;;5002509;28;20032;-70
2023/11/18 00:57:35;;;;;;;1999.90;999.90;;;5.60;99.90;;;;;;4972341;28;20373;-70
2023/11/18 01:00:00;;;;;;;1999.90;999.90;;;5.60;99.90;;;;;;4972605;28;20092;-71
2023/11/18 01:02:27;;;;;;;1999.90;999.90;;;5.60;99.90;;;;;;4972042;28;20413;-70
2023/11/18 01:04:53;;;;;;;1999.90;999.90;;;5.60;99.90;;;;;;4971871;28;20027;-70
2023/11/18 01:07:19;;;;;;;1999.90;999.90;;;5.50;99.90;;;;;;5000749;28;20021;-71
2023/11/18 01:09:45;;;;;;;1999.90;999.90;;;5.60;99.90;;;;;;4960460;28;20705;-71
2023/11/18 01:12:11;;;;;;;1999.90;999.90;;;5.50;99.90;;;;;;4962094;28;20039;-71
2023/11/18 01:14:41;;;;;;;1999.90;999.90;;;5.60;99.90;;;;;;4962037;28;20046;-70
2023/11/18 01:17:09;;;;;;;1999.90;999.90;;;5.60;99.90;;;;;;4964589;28;20062;-71
2023/11/18 01:19:35;;;;;;;1999.90;999.90;;;5.60;99.90;;;;;;4960671;28;20035;-70
2023/11/18 01:22:05;;;;;;;1999.90;999.90;;;5.60;99.90;;;;;;4969994;28;20035;-71
2023/11/18 01:24:31;;;;;;;1999.90;999.90;;;5.50;99.90;;;;;;4966803;28;20136;-71
2023/11/18 01:26:59;;;;;;;1999.90;999.90;;;5.60;99.90;;;;;;4971882;28;20030;-71
2023/11/18 01:29:25;;;;;;;1999.90;999.90;;;5.60;99.90;;;;;;4970692;28;20051;-71
2023/11/18 01:31:52;;;;;;;1999.90;999.90;;;5.60;99.90;;;;;;4966680;28;20027;-71
2023/11/18 01:34:21;;;;;;;1999.90;999.90;;;5.60;99.90;;;;;;4968804;28;20039;-70
2023/11/18 01:36:49;;;;;;;1999.90;999.90;;;5.60;99.90;;;;;;4969693;28;20042;-71
2023/11/18 01:39:15;;;;;;;1999.90;999.90;;;5.60;99.90;;;;;;4969868;28;20096;-70
2023/11/18 01:41:41;;;;;;;1999.90;999.90;;;5.60;99.90;;;;;;4970777;28;20031;-71
2023/11/18 01:44:07;;;;;;;1999.90;999.90;;;5.60;99.90;;;;;;4969570;28;20031;-71
2023/11/18 01:46:35;;;;;;;1999.90;999.90;;;5.60;99.90;;;;;;4971899;28;20023;-70
2023/11/18 01:49:03;;;;;;;1999.90;999.90;;;5.60;99.90;;;;;;4959339;28;20039;-70
2023/11/18 01:51:30;;;;;;;1999.90;999.90;;;5.60;99.90;;;;;;4962730;28;20027;-70
2023/11/18 01:53:59;;;;;;;1999.90;999.90;;;5.70;99.90;;;;;;4969919;28;20302;-71
2023/11/18 01:56:26;;;;;;;1999.90;999.90;;;5.60;99.90;;;;;;4971313;28;20043;-70
2023/11/18 01:58:53;;;;;;;1999.90;999.90;;;5.70;99.90;;;;;;4958670;28;20060;-70
2023/11/18 02:01:19;;;;;;;1999.90;999.90;;;5.70;99.90;;;;;;4965642;28;20031;-71
2023/11/18 02:03:47;;;;;;;1999.90;999.90;;;5.70;99.90;;;;;;4968324;28;20113;-70
2023/11/18 02:06:13;;;;;;;1999.90;999.90;;;5.60;99.90;;;;;;4961088;28;20113;-70
2023/11/18 02:08:41;;;;;;;1999.90;999.90;;;5.60;99.90;;;;;;4970055;28;20113;-71
2023/11/18 02:11:11;;;;;;;1999.90;999.90;;;5.70;99.90;;;;;;4967610;28;20414;-70
2023/11/18 02:13:40;;;;;;;1999.90;999.90;;;5.70;99.90;;;;;;4968585;28;20031;-71
2023/11/18 02:16:08;;;;;;;1999.90;999.90;;;5.80;99.90;;;;;;4958361;28;20117;-70
2023/11/18 02:18:37;;;;;;;1999.90;999.90;;;5.80;99.90;;;;;;4970410;28;20038;-71
2023/11/18 02:21:05;;;;;;;1999.90;999.90;;;5.80;99.90;;;;;;4969003;28;20027;-71
2023/11/18 02:23:30;;;;;;;1999.90;999.90;;;5.80;99.90;;;;;;4973884;28;20429;-70
2023/11/18 02:25:56;;;;;;;1999.90;999.90;;;5.80;99.90;;;;;;4969578;28;20031;-71
2023/11/18 02:28:22;;;;;;;1999.90;999.90;;;5.80;99.90;;;;;;4970971;28;20027;-71
2023/11/18 02:30:54;;;;;;;1999.90;999.90;;;5.80;99.90;;;;;;4971961;28;20421;-71
2023/11/18 02:33:38;;;;;;;1999.90;999.90;;;5.80;99.90;;;;;;4973027;28;20129;-70
2023/11/18 02:36:10;;;;;;;1999.90;999.90;;;5.80;99.90;;;;;;4973648;28;20027;-70
2023/11/18 02:38:45;;;;;;;1999.90;999.90;;;5.80;99.90;;;;;;4970015;28;20093;-70
2023/11/18 02:41:12;;;;;;;1999.90;999.90;;;5.80;99.90;;;;;;4957212;28;20038;-70
2023/11/18 02:43:40;;;;;;;1999.90;999.90;;;5.80;99.90;;;;;;4971081;28;20030;-71
2023/11/18 02:46:07;;;;;;;1999.90;999.90;;;5.80;99.90;;;;;;4964474;28;20106;-71
2023/11/18 02:48:34;;;;;;;1999.90;999.90;;;5.80;99.90;;;;;;4969431;28;20031;-71
2023/11/18 02:50:59;;;;;;;1999.90;999.90;;;5.80;99.90;;;;;;4969777;28;20084;-71
2023/11/18 02:53:25;;;;;;;1999.90;999.90;;;5.80;99.90;;;;;;4966824;28;20043;-71
2023/11/18 02:55:52;;;;;;;1999.90;999.90;;;5.80;99.90;;;;;;4974088;28;20077;-70
2023/11/18 02:58:18;;;;;;;1999.90;999.90;;;5.80;99.90;;;;;;4972756;28;20031;-70
2023/11/18 03:00:44;;;;;;;1999.90;999.90;;;5.70;99.90;;;;;;4971386;28;20035;-70
2023/11/18 03:03:10;;;;;;;1999.90;999.90;;;5.70;99.90;;;;;;4972229;28;20034;-70
2023/11/18 03:05:37;;;;;;;1999.90;999.90;;;5.70;99.90;;;;;;4972160;28;20030;-70
2023/11/18 03:08:05;;;;;;;1999.90;999.90;;;5.60;99.90;;;;;;4972928;28;20567;-71
2023/11/18 03:10:34;;;;;;;1999.90;999.90;;;5.60;99.90;;;;;;4969275;28;20031;-71
2023/11/18 03:13:00;;;;;;;1999.90;999.90;;;5.70;99.90;;;;;;4973304;28;20056;-70
2023/11/18 03:15:27;;;;;;;1999.90;999.90;;;5.70;99.90;;;;;;4964760;28;20022;-70
2023/11/18 03:17:53;;;;;;;1999.90;999.90;;;5.70;99.90;;;;;;4962034;28;20062;-70
2023/11/18 03:20:23;;;;;;;1999.90;999.90;;;5.70;99.90;;;;;;4972631;28;20042;-71
2023/11/18 03:22:50;;;;;;;1999.90;999.90;;;5.80;99.90;;;;;;4971513;28;20027;-71
2023/11/18 03:25:17;;;;;;;1999.90;999.90;;;5.80;99.90;;;;;;4966364;28;20069;-70
2023/11/18 03:27:46;;;;;;;1999.90;999.90;;;5.80;99.90;;;;;;4961788;28;20026;-70
2023/11/18 03:30:12;;;;;;;1999.90;999.90;;;5.80;99.90;;;;;;4955115;28;20035;-70
2023/11/18 03:32:39;;;;;;;1999.90;999.90;;;5.80;99.90;;;;;;4968408;28;20307;-70
2023/11/18 03:35:09;;;;;;;1999.90;999.90;;;5.90;99.90;;;;;;4973100;28;20031;-70
2023/11/18 03:37:38;;;;;;;1999.90;999.90;;;5.90;99.90;;;;;;4969958;28;20039;-70
2023/11/18 03:40:06;;;;;;;1999.90;999.90;;;5.80;99.90;;;;;;4979066;28;20045;-70
2023/11/18 03:42:31;;;;;;;1999.90;999.90;;;5.80;99.90;;;;;;4971702;28;20053;-70
2023/11/18 03:44:57;;;;;;;1999.90;999.90;;;5.90;99.90;;;;;;4973398;28;20425;-70
2023/11/18 03:47:26;;;;;;;1999.90;999.90;;;5.90;99.90;;;;;;4973047;28;20026;-70
2023/11/18 03:49:54;;;;;;;1999.90;999.90;;;5.90;99.90;;;;;;4972361;28;20018;-71
2023/11/18 03:52:20;;;;;;;1999.90;999.90;;;5.90;99.90;;;;;;4962302;28;20023;-70
2023/11/18 03:54:46;;;;;;;1999.90;999.90;;;5.90;99.90;;;;;;4969867;28;20045;-71
2023/11/18 03:57:12;;;;;;;1999.90;999.90;;;5.90;99.90;;;;;;4965923;28;20088;-70
2023/11/18 03:59:40;;;;;;;1999.90;999.90;;;5.90;99.90;;;;;;4964143;28;20357;-71
2023/11/18 04:02:06;;;;;;;1999.90;999.90;;;6.00;99.90;;;;;;4969843;28;20085;-71
2023/11/18 04:04:32;;;;;;;1999.90;999.90;;;5.90;99.90;;;;;;4971085;28;20085;-70
2023/11/18 04:07:00;;;;;;;1999.90;999.90;;;6.00;99.90;;;;;;4972335;28;20027;-70
2023/11/18 04:09:27;;;;;;;1999.90;999.90;;;6.00;99.90;;;;;;4964413;28;20019;-71
2023/11/18 04:11:52;;;;;;;1999.90;999.90;;;6.00;99.90;;;;;;4964456;28;20330;-71
2023/11/18 04:14:18;;;;;;;1999.90;999.90;;;6.00;99.90;;;;;;4969692;28;20049;-70
2023/11/18 04:16:49;;;;;;;1999.90;999.90;;;6.00;99.90;;;;;;4971667;28;20113;-70
2023/11/18 04:19:15;;;;;;;1999.90;999.90;;;6.00;99.90;;;;;;4970900;28;20097;-70
2023/11/18 04:21:41;;;;;;;1999.90;999.90;;;6.10;99.90;;;;;;4971968;28;20030;-71
2023/11/18 04:24:07;;;;;;;1999.90;999.90;;;6.10;99.90;;;;;;4967252;28;20085;-70
2023/11/18 04:26:33;;;;;;;1999.90;999.90;;;6.10;99.90;;;;;;4972956;28;20035;-71
2023/11/18 04:28:59;;;;;;;1999.90;999.90;;;6.10;99.90;;;;;;4972583;28;20328;-71
2023/11/18 04:31:25;;;;;;;1999.90;999.90;;;6.10;99.90;;;;;;4972127;28;20031;-71
2023/11/18 04:33:51;;;;;;;1999.90;999.90;;;6.10;99.90;;;;;;4969772;28;20038;-71
2023/11/18 04:36:19;;;;;;;1999.90;999.90;;;6.20;99.90;;;;;;4965103;28;20269;-71
2023/11/18 04:38:44;;;;;;;1999.90;999.90;;;6.20;99.90;;;;;;4965732;28;20098;-71
2023/11/18 04:41:10;;;;;;;1999.90;999.90;;;6.10;99.90;;;;;;4973715;28;20026;-71
2023/11/18 04:43:36;;;;;;;1999.90;999.90;;;6.20;99.90;;;;;;4979257;28;20030;-71
2023/11/18 04:46:02;;;;;;;1999.90;999.90;;;6.20;99.90;;;;;;4976170;28;20099;-71
2023/11/18 04:48:28;;;;;;;1999.90;999.90;;;6.20;99.90;;;;;;4973080;28;20027;-71
2023/11/18 04:50:54;;;;;;;1999.90;999.90;;;6.20;99.90;;;;;;4979162;28;20053;-71
2023/11/18 04:53:19;;;;;;;1999.90;999.90;;;6.20;99.90;;;;;;4972125;28;20034;-71
2023/11/18 04:55:45;;;;;;;1999.90;999.90;;;6.20;99.90;;;;;;4963976;28;20065;-70
2023/11/18 04:58:11;;;;;;;1999.90;999.90;;;6.20;99.90;;;;;;4975214;28;20058;-70
2023/11/18 05:00:40;;;;;;;1999.90;999.90;;;6.20;99.90;;;;;;4966314;28;20034;-70
2023/11/18 05:03:09;;;;;;;1999.90;999.90;;;6.20;99.90;;;;;;4968883;28;20058;-70
2023/11/18 05:05:38;;;;;;;1999.90;999.90;;;6.20;99.90;;;;;;4968724;28;20417;-70
2023/11/18 05:08:08;;;;;;;1999.90;999.90;;;6.20;99.90;;;;;;4978116;28;20023;-70
2023/11/18 05:10:38;;;;;;;1999.90;999.90;;;6.20;99.90;;;;;;4973742;28;20031;-70
2023/11/18 05:13:03;;;;;;;1999.90;999.90;;;6.30;99.90;;;;;;4965187;28;20019;-70
2023/11/18 05:15:31;;;;;;;1999.90;999.90;;;6.20;99.90;;;;;;4973722;28;20367;-71
2023/11/18 05:17:57;;;;;;;1999.90;999.90;;;6.20;99.90;;;;;;5008550;28;20357;-71
2023/11/18 05:20:23;;;;;;;1999.90;999.90;;;6.20;99.90;;;;;;4966047;28;20039;-70
2023/11/18 05:22:49;;;;;;;1999.90;999.90;;;6.20;99.90;;;;;;4967284;28;20027;-71
2023/11/18 05:25:15;;;;;;;1999.90;999.90;;;6.20;99.90;;;;;;4981349;28;20085;-71
2023/11/18 05:27:41;;;;;;;1999.90;999.90;;;6.30;99.90;;;;;;4963090;28;20035;-70
2023/11/18 05:30:10;;;;;;;1999.90;999.90;;;6.30;99.90;;;;;;4968766;28;20280;-70
2023/11/18 05:32:37;;;;;;;1999.90;999.90;;;6.30;99.90;;;;;;4967985;28;20476;-70
2023/11/18 05:35:04;;;;;;;1999.90;999.90;;;6.30;99.90;;;;;;5006126;28;20022;-70
2023/11/18 05:37:35;;;;;;;1999.90;999.90;;;6.30;99.90;;;;;;4970128;28;20382;-70
2023/11/18 05:40:06;;;;;;;1999.90;999.90;;;6.30;99.90;;;;;;4964267;28;20046;-70
2023/11/18 05:42:37;;;;;;;1999.90;999.90;;;6.30;99.90;;;;;;4970803;28;20332;-70
2023/11/18 05:45:04;;;;;;;1999.90;999.90;;;6.30;99.90;;;;;;4969980;28;20039;-70
2023/11/18 05:47:30;;;;;;;1999.90;999.90;;;6.30;99.90;;;;;;4970717;28;20066;-70
2023/11/18 05:49:56;;;;;;;1999.90;999.90;;;6.30;99.90;;;;;;4967510;28;20038;-70
2023/11/18 05:52:23;;;;;;;1999.90;999.90;;;6.30;99.90;;;;;;4958399;28;20035;-70
2023/11/18 05:54:48;;;;;;;1999.90;999.90;;;6.30;99.90;;;;;;4969720;28;20105;-70
2023/11/18 05:57:18;;;;;;;1999.90;999.90;;;6.40;99.90;;;;;;4974623;28;20117;-70
2023/11/18 05:59:44;;;;;;;1999.90;999.90;;;6.40;99.90;;;;;;4961655;28;20027;-70
2023/11/18 06:02:17;;;;;;;1999.90;999.90;;;6.40;99.90;;;;;;4961044;28;20035;-70
2023/11/18 06:04:44;;;;;;;1999.90;999.90;;;6.40;99.90;;;;;;4974435;28;20451;-70
2023/11/18 06:07:09;;;;;;;1999.90;999.90;;;6.40;99.90;;;;;;4972080;28;20085;-70
2023/11/18 06:09:35;;;;;;;1999.90;999.90;;;6.40;99.90;;;;;;4972833;28;20043;-70
2023/11/18 06:12:02;;;;;;;1999.90;999.90;;;6.40;99.90;;;;;;4974388;28;20432;-70
2023/11/18 06:14:27;;;;;;;1999.90;999.90;;;6.40;99.90;;;;;;5005964;28;20063;-70
2023/11/18 06:16:53;;;;;;;1999.90;999.90;;;6.40;99.90;;;;;;4993267;28;20357;-70
2023/11/18 06:19:20;;;;;;;1999.90;999.90;;;6.40;99.90;;;;;;4969129;28;20019;-70
2023/11/18 06:21:46;;;;;;;1999.90;999.90;;;6.40;99.90;;;;;;4971727;28;20589;-70
2023/11/18 06:24:14;;;;;;;1999.90;999.90;;;6.50;99.90;;;;;;4971493;28;20113;-70
2023/11/18 06:26:41;;;;;;;1999.90;999.90;;;6.50;99.90;;;;;;4974879;28;20035;-70
2023/11/18 06:29:07;;;;;;;1999.90;999.90;;;6.50;99.90;;;;;;4973479;28;20023;-70
2023/11/18 06:31:33;;;;;;;1999.90;999.90;;;6.50;99.90;;;;;;4972833;28;20031;-70
2023/11/18 06:33:58;;;;;;;1999.90;999.90;;;6.50;99.90;;;;;;4974231;28;20097;-70
2023/11/18 06:36:26;;;;;;;1999.90;999.90;;;6.50;99.90;;;;;;4972996;28;20041;-70
2023/11/18 06:38:53;;;;;;;1999.90;999.90;;;6.50;99.90;;;;;;4969720;28;20050;-70
2023/11/18 06:41:23;;;;;;;1999.90;999.90;;;6.50;99.90;;;;;;4965965;28;20114;-70
2023/11/18 06:46:15;;;;;;;1999.90;999.90;;;6.50;99.90;;;;;;4971836;28;20508;-70
2023/11/18 06:48:40;;;;;;;1999.90;999.90;;;6.50;99.90;;;;;;4974230;28;20038;-70
2023/11/18 06:51:11;;;;;;;1999.90;999.90;;;6.50;99.90;;;;;;4973645;28;20030;-70
2023/11/18 06:53:37;;;;;;;1999.90;999.90;;;6.50;99.90;;;;;;4994640;28;20133;-70
2023/11/18 06:56:03;;;;;;;1999.90;999.90;;;6.50;99.90;;;;;;4973042;28;20130;-70
2023/11/18 06:58:28;;;;;;;1999.90;999.90;;;6.50;99.90;;;;;;4973766;28;20059;-70
2023/11/18 07:00:54;;;;;;;1999.90;999.90;;;6.50;99.90;;;;;;4969108;28;20035;-70
2023/11/18 07:03:21;;;;;;;1999.90;999.90;;;6.50;99.90;;;;;;4973445;28;20397;-70
2023/11/18 07:05:47;;;;;;;1999.90;999.90;;;6.50;99.90;;;;;;4969679;28;20023;-70
2023/11/18 07:08:13;;;;;;;1999.90;999.90;;;6.50;99.90;;;;;;4982024;28;20078;-70
2023/11/18 07:10:40;;;;;;;1999.90;999.90;;;6.60;99.90;;;;;;4964460;28;20031;-70
2023/11/18 07:13:10;;;;;;;1999.90;999.90;;;6.50;99.90;;;;;;4970281;28;20031;-70
2023/11/18 07:15:36;;;;;;;1999.90;999.90;;;6.60;99.90;;;;;;4960328;28;20034;-70
2023/11/18 07:18:02;;;;;;;1999.90;999.90;;;6.60;99.90;;;;;;4968860;28;20023;-70
2023/11/18 07:20:28;;;;;;;1999.90;999.90;;;6.50;99.90;;;;;;4970150;28;20430;-70
2023/11/18 07:22:54;;;;;;;1999.90;999.90;;;6.60;99.90;;;;;;4964792;28;20045;-71
2023/11/18 07:25:20;;;;;;;1999.90;999.90;;;6.60;99.90;;;;;;4970585;28;20038;-71
2023/11/18 07:27:46;;;;;;;1999.90;999.90;;;6.60;99.90;;;;;;4971804;28;20058;-70
2023/11/18 07:30:12;;;;;;;1999.90;999.90;;;6.60;99.90;;;;;;4967566;28;20473;-71
2023/11/18 07:32:39;;;;;;;1999.90;999.90;;;6.60;99.90;;;;;;4963864;28;20035;-71
2023/11/18 07:35:08;;;;;;;1999.90;999.90;;;6.60;99.90;;;;;;4963658;28;20031;-71
2023/11/18 07:37:36;;;;;;;1999.90;999.90;;;6.60;99.90;;;;;;4970978;28;20031;-71
2023/11/18 07:40:04;;;;;;;1999.90;999.90;;;6.60;99.90;;;;;;4971497;28;20452;-70
2023/11/18 07:42:34;;;;;;;1999.90;999.90;;;6.70;99.90;;;;;;4967514;28;20080;-70
2023/11/18 07:45:11;;;;;;;1999.90;999.90;;;6.60;99.90;;;;;;4965448;28;20062;-71
2023/11/18 07:47:39;;;;;;;1999.90;999.90;;;6.70;99.90;;;;;;4983573;28;20101;-70
2023/11/18 07:50:05;;;;;;;1999.90;999.90;;;6.70;99.90;;;;;;4980706;28;20037;-71
2023/11/18 07:52:31;;;;;;;1999.90;999.90;;;6.60;99.90;;;;;;4994495;28;20019;-71
2023/11/18 07:54:57;;;;;;;1999.90;999.90;;;6.70;99.90;;;;;;4976558;28;20045;-71
2023/11/18 07:57:23;;;;;;;1999.90;999.90;;;6.70;99.90;;;;;;4967765;28;20050;-70
2023/11/18 07:59:50;;;;;;;1999.90;999.90;;;6.70;99.90;;;;;;4970675;28;20039;-70
2023/11/18 08:02:18;;;;;;;1999.90;999.90;;;6.70;99.90;;;;;;4977578;28;20023;-70
2023/11/18 08:04:45;;;;;;;1999.90;999.90;;;6.70;99.90;;;;;;4993979;28;20546;-70
2023/11/18 08:07:11;;;;;;;1999.90;999.90;;;6.70;99.90;;;;;;4995627;28;20038;-70
2023/11/18 08:09:38;;;;;;;1999.90;999.90;;;6.70;99.90;;;;;;4977522;28;20560;-70
2023/11/18 08:12:09;;;;;;;1999.90;999.90;;;6.80;99.90;;;;;;4983191;28;20014;-70
2023/11/18 08:14:35;;;;;;;1999.90;999.90;;;6.80;99.90;;;;;;4968938;28;20146;-70
2023/11/18 08:17:01;;;;;;;1999.90;999.90;;;6.80;99.90;;;;;;4966580;28;20026;-70
2023/11/18 08:19:27;;;;;;;1999.90;999.90;;;6.80;99.90;;;;;;4984640;28;20665;-70
2023/11/18 08:21:52;;;;;;;1999.90;999.90;;;6.80;99.90;;;;;;4980276;28;20031;-70
2023/11/18 08:24:18;;;;;;;1999.90;999.90;;;6.80;99.90;;;;;;4975177;28;20122;-71
2023/11/18 08:26:46;;;;;;;1999.90;999.90;;;6.80;99.90;;;;;;4966422;28;20074;-70
2023/11/18 08:29:12;;;;;;;1999.90;999.90;;;6.80;99.90;;;;;;4977470;28;20026;-70
2023/11/18 08:31:39;;;;;;;1999.90;999.90;;;6.90;99.90;;;;;;4981184;28;20027;-71
2023/11/18 08:34:05;;;;;;;;;;;6.90;99.90;;;;;;4967608;28;20065;-70
2023/11/18 08:36:33;;;;;;;1999.90;999.90;;;6.90;99.90;;;;;;4959383;28;19941;-70
2023/11/18 08:38:59;;;;;;;1999.90;999.90;;;6.90;99.90;;;;;;4962495;28;20073;-70
2023/11/18 08:41:25;;;;;;;1999.90;999.90;;;6.90;99.90;;;;;;4968975;28;20050;-70
2023/11/18 08:43:52;;;;;;;1999.90;999.90;;;6.90;99.90;;;;;;4970039;28;20080;-70
2023/11/18 08:46:17;;;;;;;1999.90;999.90;;;6.90;99.90;;;;;;4975602;28;20030;-70
2023/11/18 08:48:44;;;;;;;1999.90;999.90;;;7.00;99.90;;;;;;4967752;28;20333;-70
2023/11/18 08:51:12;;;;;;;1999.90;999.90;;;7.00;99.90;;;;;;4971378;28;20704;-70
2023/11/18 08:53:41;;;;;;;1999.90;999.90;;;7.00;99.90;;;;;;4992656;28;20032;-70
2023/11/18 08:56:16;;;;;;;1999.90;999.90;;;7.00;99.90;;;;;;4980023;28;20019;-70
2023/11/18 08:58:44;;;;;;;1999.90;999.90;;;7.00;99.90;;;;;;4970872;28;20038;-70
2023/11/18 09:01:14;;;;;;;1999.90;999.90;;;7.10;99.90;;;;;;4966442;28;20023;-70
2023/11/18 09:03:51;;;;;;;1999.90;999.90;;;7.10;99.90;;;;;;4970425;28;20035;-70
2023/11/18 09:06:17;;;;;;;1999.90;999.90;;;7.00;99.90;;;;;;4959148;28;20034;-70
2023/11/18 09:08:52;;;;;;;1999.90;999.90;;;7.10;99.90;;;;;;4969691;28;20098;-71
2023/11/18 09:11:19;;;;;;;1999.90;999.90;;;7.10;99.90;;;;;;4972240;28;20046;-70
2023/11/18 09:13:53;;;;;;;1999.90;999.90;;;7.10;99.90;;;;;;4972977;28;20031;-70
2023/11/18 09:16:22;;;;;;;1999.90;999.90;;;7.20;99.90;;;;;;4984884;28;20117;-70
2023/11/18 09:18:49;;;;;;;1999.90;999.90;;;7.20;99.90;;;;;;4974767;28;20031;-70
2023/11/18 09:21:15;;;;;;;1999.90;999.90;;;7.20;99.90;;;;;;4974666;28;20041;-70
2023/11/18 09:23:42;;;;;;;1999.90;999.90;;;7.20;99.90;;;;;;4984305;28;20034;-70
2023/11/18 09:26:10;;;;;;;1999.90;999.90;;;7.20;99.90;;;;;;4958376;28;20027;-70
2023/11/18 09:28:37;;;;;;;1999.90;999.90;;;7.20;99.90;;;;;;4957295;28;20031;-70
2023/11/18 09:31:04;;;;;;;1999.90;999.90;;;7.20;99.90;;;;;;4973768;28;20024;-70
2023/11/18 09:33:34;;;;;;;1999.90;999.90;;;7.20;99.90;;;;;;4979489;28;20144;-71
2023/11/18 09:36:02;;;;;;;1999.90;999.90;;;7.20;99.90;;;;;;4970222;28;20054;-70
2023/11/18 09:38:36;;;;;;;1999.90;999.90;;;7.20;99.90;;;;;;4972315;28;20031;-71
2023/11/18 09:41:06;;;;;;;1999.90;999.90;;;7.20;99.90;;;;;;4971980;28;20038;-71
2023/11/18 09:43:42;;;;;;;1999.90;999.90;;;7.30;99.90;;;;;;4986808;28;20425;-70
2023/11/18 09:46:12;;;;;;;1999.90;999.90;;;7.30;99.90;;;;;;4970221;28;20034;-70
2023/11/18 09:48:52;;;;;;;1999.90;999.90;;;7.20;99.90;;;;;;4972558;28;20027;-70
2023/11/18 09:51:22;;;;;;;1999.90;999.90;;;7.30;99.90;;;;;;4975761;28;20341;-70
2023/11/18 09:53:53;;;;;;;1999.90;999.90;;;7.20;99.90;;;;;;4966747;28;20059;-72
2023/11/18 09:56:58;;;;;;;1999.90;999.90;;;7.30;99.90;;;;;;4967717;28;20027;-70
2023/11/18 09:59:29;;;;;;;1999.90;999.90;;;7.30;99.90;;;;;;4960526;28;20081;-70
2023/11/18 10:01:58;;;;;;;1999.90;999.90;;;7.30;99.90;;;;;;4974579;28;20050;-70
2023/11/18 10:04:27;;;;;;;1999.90;999.90;;;7.30;99.90;;;;;;4974018;28;20037;-71
2023/11/18 10:06:56;;;;;;;1999.90;999.90;;;7.30;99.90;;;;;;4979693;28;20360;-70
2023/11/18 10:09:38;;;;;;;1999.90;999.90;;;7.30;99.90;;;;;;4969027;28;20011;-70
2023/11/18 10:12:08;;;;;;;1999.90;999.90;;;7.30;99.90;;;;;;4963685;28;20023;-69
2023/11/18 10:14:34;;;;;;;1999.90;999.90;;;7.30;99.90;;;;;;4979483;28;20027;-70
2023/11/18 10:17:06;;;;;;;;;;;7.30;99.90;;;;;;4979233;28;20058;-70
2023/11/18 10:19:51;;;;;;;1999.90;999.90;;;7.30;99.90;;;;;;4975428;28;19910;-70
2023/11/18 10:22:29;;;;;;;1999.90;999.90;;;7.30;99.90;;;;;;4971504;28;20089;-70
2023/11/18 10:24:56;;;;;;;1999.90;999.90;;;7.30;99.90;;;;;;4972719;28;20069;-70
2023/11/18 10:27:27;;;;;;;1999.90;999.90;;;7.30;99.90;;;;;;4982143;28;20429;-71
2023/11/18 10:30:03;;;;;;;1999.90;999.90;;;7.40;99.90;;;;;;4975956;28;20402;-70
2023/11/18 10:32:30;;;;;;;1999.90;999.90;;;7.40;99.90;;;;;;4972170;28;20034;-70
2023/11/18 10:34:57;;;;;;;1999.90;999.90;;;7.40;99.90;;;;;;4970455;28;20031;-70
2023/11/18 10:37:25;;;;;;;1999.90;999.90;;;7.40;99.90;;;;;;4968705;28;20444;-70
2023/11/18 10:39:53;;;;;;;1999.90;999.90;;;7.40;99.90;;;;;;4980939;28;20053;-70
2023/11/18 10:42:19;;;;;;;1999.90;999.90;;;7.30;99.90;;;;;;4978140;28;20023;-70
2023/11/18 10:44:57;;;;;;;1999.90;999.90;;;7.30;99.90;;;;;;4972695;28;20035;-70
2023/11/18 10:47:25;;;;;;;1999.90;999.90;;;7.40;99.90;;;;;;4973978;28;20034;-70
2023/11/18 10:49:53;;;;;;;1999.90;999.90;;;7.40;99.90;;;;;;4984645;28;20034;-70
2023/11/18 10:52:19;;;;;;;1999.90;999.90;;;7.40;99.90;;;;;;4979722;28;20026;-70
2023/11/18 10:54:55;;;;;;;;;;;7.40;99.90;;;;;;4974219;28;20332;-70
2023/11/18 10:57:24;;;;;;;1999.90;999.90;;;7.40;99.90;;;;;;4964752;28;19917;-70
2023/11/18 11:00:00;;;;;;;1999.90;999.90;;;7.40;99.90;;;;;;4964399;28;20353;-70
2023/11/18 11:02:34;;;;;;;1999.90;999.90;;;7.50;99.90;;;;;;4964436;28;20080;-71
2023/11/18 11:05:01;;;;;;;1999.90;999.90;;;7.40;99.90;;;;;;4973756;28;20034;-71
2023/11/18 11:07:29;;;;;;;1999.90;999.90;;;7.40;99.90;;;;;;4975023;28;20073;-71
2023/11/18 11:09:56;;;;;;;1999.90;999.90;;;7.50;99.90;;;;;;4973740;28;20031;-71
2023/11/18 11:12:25;;;;;;;1999.90;999.90;;;7.40;99.90;;;;;;4970972;28;20122;-71
2023/11/18 11:15:14;;;;;;;1999.90;999.90;;;7.40;99.90;;;;;;4968086;28;20433;-71
2023/11/18 11:17:46;;;;;;;1999.90;999.90;;;7.50;99.90;;;;;;4964865;28;20081;-72
2023/11/18 11:20:17;;;;;;;1999.90;999.90;;;7.50;99.90;;;;;;4968711;28;20038;-71
2023/11/18 11:23:07;;;;;;;1999.90;999.90;;;7.50;99.90;;;;;;4982325;28;20038;-71
2023/11/18 11:25:37;;;;;;;1999.90;999.90;;;7.50;99.90;;;;;;4975899;28;20050;-72
2023/11/18 11:28:23;;;;;;;1999.90;999.90;;;7.60;99.90;;;;;;4976852;28;20098;-70
2023/11/18 11:31:08;;;;;;;1999.90;999.90;;;7.60;99.90;;;;;;4971048;28;20023;-70
2023/11/18 11:33:45;;;;;;;1999.90;999.90;;;7.60;99.90;;;;;;4978525;28;20022;-70
2023/11/18 11:36:22;;;;;;;1999.90;999.90;;;7.60;99.90;;;;;;4974415;28;20042;-72
2023/11/18 11:38:52;;;;;;;1999.90;999.90;;;7.70;99.90;;;;;;4970300;28;20050;-71
2023/11/18 11:41:26;;;;;;;1999.90;999.90;;;7.70;99.90;;;;;;4961779;28;20125;-73
2023/11/18 11:43:55;;;;;;;1999.90;999.90;;;7.70;99.90;;;;;;4971199;28;20714;-71
2023/11/18 11:46:23;;;;;;;1999.90;999.90;;;7.70;99.90;;;;;;4968665;28;20039;-71
2023/11/18 11:48:55;;;;;;;1999.90;999.90;;;7.80;99.90;;;;;;4972049;28;20027;-70
2023/11/18 11:51:29;;;;;;;1999.90;999.90;;;7.80;99.90;;;;;;5005972;28;20032;-70
2023/11/18 11:53:59;;;;;;;1999.90;999.90;;;7.80;99.90;;;;;;4972852;28;20031;-71
2023/11/18 11:56:49;;;;;;;1999.90;999.90;;;7.90;99.90;;;;;;4970892;28;20038;-70
2023/11/18 11:59:56;;;;;;;1999.90;999.90;;;7.90;99.90;;;;;;4972050;28;20030;-70
2023/11/18 12:02:28;;;;;;;1999.90;999.90;;;8.00;99.90;;;;;;4970645;28;20023;-70
2023/11/18 12:05:06;;;;;;;1999.90;999.90;;;8.00;99.90;;;;;;4972833;28;20083;-72
2023/11/18 12:07:38;;;;;;;1999.90;999.90;;;8.00;99.90;;;;;;4955889;28;20032;-70
2023/11/18 12:10:13;;;;;;;1999.90;999.90;;;8.10;99.90;;;;;;4966495;28;20027;-70
2023/11/18 12:12:41;;;;;;;1999.90;999.90;;;8.20;99.90;;;;;;4964063;28;20178;-71
2023/11/18 12:15:17;;;;;;;1999.90;999.90;;;8.10;99.90;;;;;;4972356;28;20038;-70
2023/11/18 12:17:52;;;;;;;1999.90;999.90;;;8.20;99.90;;;;;;4972501;28;20034;-70
2023/11/18 12:20:57;;;;;;;1999.90;999.90;;;8.20;99.90;;;;;;4970398;28;20396;-71